createdAt,value
2023-03-17T00:00:24.977Z,63.80
2023-03-17T00:02:51.786Z,63.90
2023-03-17T00:05:24.340Z,63.90
2023-03-17T00:07:53.114Z,63.90
2023-03-17T00:10:23.332Z,63.90
2023-03-17T00:12:53.309Z,64.10
2023-03-17T00:15:22.084Z,64.10
2023-03-17T00:17:49.724Z,64.10
2023-03-17T00:20:26.684Z,64.30
2023-03-17T00:22:57.351Z,64.40
2023-03-17T00:25:28.150Z,64.40
2023-03-17T00:27:56.104Z,64.50
2023-03-17T00:30:24.487Z,64.60
2023-03-17T00:32:52.612Z,64.70
2023-03-17T00:35:25.324Z,64.90
2023-03-17T00:37:53.558Z,64.90
2023-03-17T00:40:24.126Z,64.90
2023-03-17T00:42:52.293Z,65.00
2023-03-17T00:45:23.773Z,65.10
2023-03-17T00:47:52.469Z,65.20
2023-03-17T00:50:24.809Z,65.20
2023-03-17T00:52:53.382Z,65.30
2023-03-17T00:55:20.561Z,65.40
2023-03-17T00:57:48.477Z,65.40
2023-03-17T01:00:21.564Z,65.60
2023-03-17T01:02:48.915Z,65.60
2023-03-17T01:05:16.177Z,65.50
2023-03-17T01:07:47.937Z,65.50
2023-03-17T01:10:18.748Z,65.70
2023-03-17T01:12:45.692Z,65.70
2023-03-17T01:15:13.809Z,65.80
2023-03-17T01:17:41.772Z,65.90
2023-03-17T01:20:32.704Z,66.00
2023-03-17T01:23:00.451Z,66.00
2023-03-17T01:25:27.554Z,66.00
2023-03-17T01:27:57.598Z,66.00
2023-03-17T01:30:30.463Z,65.90
2023-03-17T01:32:58.210Z,65.80
2023-03-17T01:35:26.935Z,65.80
2023-03-17T01:37:53.645Z,65.80
2023-03-17T01:40:24.176Z,65.70
2023-03-17T01:43:02.061Z,65.70
2023-03-17T01:46:06.640Z,65.80
2023-03-17T01:48:58.890Z,65.80
2023-03-17T01:51:32.369Z,65.90
2023-03-17T01:54:06.623Z,65.90
2023-03-17T01:56:35.073Z,65.90
2023-03-17T01:59:05.153Z,66.00
2023-03-17T02:01:41.116Z,66.00
2023-03-17T02:04:08.953Z,66.00
2023-03-17T02:06:37.018Z,65.90
2023-03-17T02:09:07.830Z,65.90
2023-03-17T02:11:34.925Z,65.90
2023-03-17T02:14:01.738Z,65.90
2023-03-17T02:16:30.047Z,65.90
2023-03-17T02:18:57.316Z,65.80
2023-03-17T02:21:49.956Z,65.90
2023-03-17T02:24:32.698Z,66.00
2023-03-17T02:27:21.265Z,66.10
2023-03-17T02:29:47.993Z,66.10
2023-03-17T02:32:17.668Z,66.10
2023-03-17T02:34:46.277Z,66.10
2023-03-17T02:37:13.882Z,66.10
2023-03-17T02:39:40.901Z,66.20
2023-03-17T02:42:08.225Z,66.20
2023-03-17T02:44:35.154Z,66.20
2023-03-17T02:47:02.163Z,66.20
2023-03-17T02:49:30.615Z,66.30
2023-03-17T02:51:57.225Z,66.30
2023-03-17T02:54:23.991Z,66.40
2023-03-17T02:56:50.681Z,66.40
2023-03-17T02:59:17.340Z,66.30
2023-03-17T03:01:44.115Z,66.40
2023-03-17T03:04:11.837Z,66.40
2023-03-17T03:06:39.697Z,66.40
2023-03-17T03:09:06.622Z,66.50
2023-03-17T03:11:33.264Z,66.40
2023-03-17T03:14:00.042Z,66.50
2023-03-17T03:16:26.592Z,66.50
2023-03-17T03:18:53.552Z,66.50
2023-03-17T03:21:20.403Z,66.50
2023-03-17T03:23:47.017Z,66.50
2023-03-17T03:26:13.696Z,66.50
2023-03-17T03:28:40.578Z,66.50
2023-03-17T03:31:07.838Z,66.60
2023-03-17T03:33:34.877Z,66.60
2023-03-17T03:36:02.148Z,66.70
2023-03-17T03:38:28.869Z,66.60
2023-03-17T03:40:55.662Z,66.50
2023-03-17T03:43:23.922Z,66.40
2023-03-17T03:45:51.663Z,66.30
2023-03-17T03:48:21.787Z,66.10
2023-03-17T03:50:48.413Z,66.10
2023-03-17T03:53:15.203Z,66.00
2023-03-17T03:55:42.232Z,65.90
2023-03-17T03:58:08.823Z,65.90
2023-03-17T04:00:35.406Z,65.90
2023-03-17T04:03:02.046Z,65.90
2023-03-17T04:05:28.911Z,65.80
2023-03-17T04:07:55.578Z,65.70
2023-03-17T04:10:23.215Z,65.40
2023-03-17T04:12:49.828Z,65.40
2023-03-17T04:15:18.102Z,65.40
2023-03-17T04:17:44.764Z,65.20
2023-03-17T04:20:13.288Z,65.20
2023-03-17T04:22:41.781Z,65.10
2023-03-17T04:25:10.189Z,65.10
2023-03-17T04:27:37.456Z,65.00
2023-03-17T04:30:05.458Z,64.90
2023-03-17T04:32:32.176Z,65.00
2023-03-17T04:34:58.991Z,64.90
2023-03-17T04:37:26.073Z,64.80
2023-03-17T04:39:53.105Z,64.80
2023-03-17T04:42:19.696Z,64.80
2023-03-17T04:44:46.382Z,64.90
2023-03-17T04:47:12.997Z,64.80
2023-03-17T04:49:39.689Z,64.80
2023-03-17T04:52:06.714Z,64.70
2023-03-17T04:54:33.380Z,64.80
2023-03-17T04:57:00.128Z,64.70
2023-03-17T04:59:27.282Z,64.70
2023-03-17T05:01:53.952Z,65.40
2023-03-17T05:04:31.186Z,64.60
2023-03-17T05:06:58.477Z,64.50
2023-03-17T05:09:26.724Z,64.40
2023-03-17T05:11:53.361Z,64.40
2023-03-17T05:14:20.453Z,64.40
2023-03-17T05:16:48.371Z,64.30
2023-03-17T05:19:15.627Z,64.20
2023-03-17T05:21:43.616Z,64.30
2023-03-17T05:24:10.506Z,64.20
2023-03-17T05:26:37.115Z,64.20
2023-03-17T05:29:04.023Z,64.20
2023-03-17T05:31:31.527Z,64.30
2023-03-17T05:33:58.757Z,64.40
2023-03-17T05:36:25.416Z,64.40
2023-03-17T05:38:52.285Z,64.40
2023-03-17T05:41:19.023Z,64.40
2023-03-17T05:43:46.044Z,64.40
2023-03-17T05:46:13.621Z,64.30
2023-03-17T05:48:40.711Z,64.30
2023-03-17T05:51:07.955Z,64.30
2023-03-17T05:53:36.158Z,64.20
2023-03-17T05:56:03.648Z,64.10
2023-03-17T05:58:30.628Z,64.10
2023-03-17T06:00:57.420Z,64.20
2023-03-17T06:03:24.182Z,64.20
2023-03-17T06:05:50.830Z,64.30
2023-03-17T06:08:17.760Z,64.20
2023-03-17T06:10:44.444Z,64.00
2023-03-17T06:13:11.579Z,64.00
2023-03-17T06:15:38.559Z,64.00
2023-03-17T06:18:05.579Z,64.00
2023-03-17T06:20:33.368Z,63.80
2023-03-17T06:23:04.980Z,63.80
2023-03-17T06:25:35.719Z,63.90
2023-03-17T06:28:04.162Z,63.80
2023-03-17T06:30:33.059Z,63.80
2023-03-17T06:33:00.513Z,63.60
2023-03-17T06:35:27.887Z,63.70
2023-03-17T06:37:54.839Z,63.60
2023-03-17T06:40:21.580Z,63.70
2023-03-17T06:42:48.154Z,63.90
2023-03-17T06:45:15.258Z,63.80
2023-03-17T06:47:41.889Z,63.70
2023-03-17T06:50:10.121Z,63.70
2023-03-17T06:52:38.235Z,63.50
2023-03-17T06:55:06.243Z,63.60
2023-03-17T06:57:32.921Z,64.10
2023-03-17T06:59:59.695Z,63.40
2023-03-17T07:02:27.375Z,63.30
2023-03-17T07:04:54.159Z,63.10
2023-03-17T07:07:21.022Z,63.10
2023-03-17T07:09:47.940Z,63.00
2023-03-17T07:12:15.729Z,63.10
2023-03-17T07:14:42.346Z,63.10
2023-03-17T07:17:13.112Z,62.90
2023-03-17T07:19:40.628Z,62.60
2023-03-17T07:22:08.263Z,62.80
2023-03-17T07:24:34.871Z,62.90
2023-03-17T07:27:01.534Z,62.80
2023-03-17T07:29:29.189Z,62.50
2023-03-17T07:31:56.051Z,62.60
2023-03-17T07:34:23.121Z,62.50
2023-03-17T07:36:49.731Z,62.40
2023-03-17T07:39:17.264Z,62.40
2023-03-17T07:41:44.136Z,61.90
2023-03-17T07:44:11.376Z,61.50
2023-03-17T07:46:38.797Z,61.40
2023-03-17T07:49:06.020Z,61.20
2023-03-17T07:51:32.841Z,61.20
2023-03-17T07:54:04.014Z,61.20
2023-03-17T07:56:32.674Z,61.20
2023-03-17T07:58:59.857Z,61.00
2023-03-17T08:01:27.632Z,60.90
2023-03-17T08:03:55.603Z,60.50
2023-03-17T08:06:25.227Z,60.40
2023-03-17T08:08:53.049Z,60.80
2023-03-17T08:11:20.383Z,60.60
2023-03-17T08:13:47.715Z,60.60
2023-03-17T08:16:14.399Z,60.40
2023-03-17T08:18:41.132Z,59.70
2023-03-17T08:21:07.887Z,58.90
2023-03-17T08:23:34.491Z,59.40
2023-03-17T08:26:04.067Z,58.80
2023-03-17T08:28:31.797Z,57.70
2023-03-17T08:31:14.354Z,57.80
2023-03-17T08:33:42.160Z,56.50
2023-03-17T08:36:10.225Z,56.20
2023-03-17T08:38:37.986Z,56.10
2023-03-17T08:41:06.749Z,55.50
2023-03-17T08:43:34.812Z,55.80
2023-03-17T08:46:05.443Z,55.20
2023-03-17T08:48:33.193Z,54.50
2023-03-17T08:50:59.761Z,54.30
2023-03-17T08:53:27.125Z,53.80
2023-03-17T08:55:57.364Z,53.10
2023-03-17T08:58:27.524Z,52.80
2023-03-17T09:00:54.253Z,50.90
2023-03-17T09:03:21.642Z,50.80
2023-03-17T09:05:49.794Z,49.80
2023-03-17T09:08:16.606Z,49.20
2023-03-17T09:10:44.387Z,47.30
2023-03-17T09:13:11.603Z,47.10
2023-03-17T09:15:38.708Z,45.60
2023-03-17T09:18:06.297Z,44.60
2023-03-17T09:20:33.460Z,44.20
2023-03-17T09:23:00.683Z,42.70
2023-03-17T09:25:27.525Z,42.60
2023-03-17T09:27:54.924Z,42.20
2023-03-17T09:30:21.855Z,41.40
2023-03-17T09:32:49.065Z,41.50
2023-03-17T09:35:15.739Z,41.90
2023-03-17T09:37:42.698Z,43.00
2023-03-17T09:40:17.094Z,42.60
2023-03-17T09:42:52.252Z,41.60
2023-03-17T09:45:36.233Z,41.30
2023-03-17T09:48:14.798Z,42.30
2023-03-17T09:50:48.542Z,42.20
2023-03-17T09:53:46.120Z,41.90
2023-03-17T09:56:15.547Z,42.10
2023-03-17T09:58:52.749Z,41.70
2023-03-17T10:01:20.090Z,40.90
2023-03-17T10:03:47.588Z,40.40
2023-03-17T10:06:32.127Z,40.20
2023-03-17T10:09:32.057Z,40.50
2023-03-17T10:12:16.575Z,40.70
2023-03-17T10:15:01.868Z,40.70
2023-03-17T10:17:32.601Z,41.50
2023-03-17T10:20:08.448Z,42.00
2023-03-17T10:22:48.019Z,42.60
2023-03-17T10:25:20.062Z,44.00
2023-03-17T10:28:14.082Z,44.40
2023-03-17T10:30:40.715Z,45.00
2023-03-17T10:33:07.771Z,45.70
2023-03-17T10:35:36.625Z,45.80
2023-03-17T10:38:22.016Z,45.70
2023-03-17T10:40:57.997Z,45.10
2023-03-17T10:43:30.752Z,46.00
2023-03-17T10:46:03.775Z,44.60
2023-03-17T10:48:36.015Z,45.50
2023-03-17T10:51:08.883Z,46.00
2023-03-17T10:53:43.318Z,47.40
2023-03-17T10:56:27.295Z,46.30
2023-03-17T10:58:55.498Z,46.60
2023-03-17T11:01:47.246Z,47.00
2023-03-17T11:04:42.456Z,46.80
2023-03-17T11:07:20.256Z,46.20
2023-03-17T11:09:51.521Z,45.70
2023-03-17T11:12:39.394Z,46.20
2023-03-17T11:15:11.382Z,46.20
2023-03-17T11:17:58.541Z,47.00
2023-03-17T11:20:44.513Z,46.60
2023-03-17T11:23:46.319Z,46.50
2023-03-17T11:26:31.651Z,46.30
2023-03-17T11:29:22.438Z,46.50
2023-03-17T11:32:07.553Z,46.70
2023-03-17T11:34:43.864Z,47.00
2023-03-17T11:37:22.570Z,47.00
2023-03-17T11:40:06.441Z,47.30
2023-03-17T11:42:45.889Z,47.60
2023-03-17T11:45:27.271Z,47.80
2023-03-17T11:48:09.010Z,48.20
2023-03-17T11:50:59.634Z,47.90
2023-03-17T11:53:41.322Z,47.40
2023-03-17T11:56:20.426Z,47.10
2023-03-17T11:58:53.252Z,47.90
2023-03-17T12:01:27.262Z,47.70
2023-03-17T12:04:13.984Z,47.70
2023-03-17T12:06:50.574Z,47.20
2023-03-17T12:09:34.132Z,47.00
2023-03-17T12:12:04.272Z,47.00
2023-03-17T12:14:38.231Z,47.10
2023-03-17T12:17:16.822Z,47.10
2023-03-17T12:20:07.053Z,47.70
2023-03-17T12:22:39.096Z,47.90
2023-03-17T12:25:16.404Z,47.40
2023-03-17T12:27:52.689Z,47.00
2023-03-17T12:30:31.299Z,46.80
2023-03-17T12:33:21.377Z,46.60
2023-03-17T12:35:48.143Z,46.40
2023-03-17T12:38:25.447Z,46.70
2023-03-17T12:41:19.038Z,46.80
2023-03-17T12:44:23.209Z,47.10
2023-03-17T12:47:24.951Z,47.00
2023-03-17T12:50:10.652Z,47.20
2023-03-17T12:52:49.021Z,47.60
2023-03-17T12:55:18.188Z,47.50
2023-03-17T12:57:47.816Z,47.30
2023-03-17T13:00:25.299Z,47.80
2023-03-17T13:03:19.331Z,47.90
2023-03-17T13:05:50.640Z,48.00
2023-03-17T13:08:40.927Z,48.10
2023-03-17T13:11:18.487Z,48.20
2023-03-17T13:13:54.481Z,48.40
2023-03-17T13:16:33.547Z,48.40
2023-03-17T13:19:20.079Z,48.60
2023-03-17T13:22:13.024Z,48.40
2023-03-17T13:24:48.890Z,48.90
2023-03-17T13:27:31.026Z,48.90
2023-03-17T13:29:59.220Z,49.20
2023-03-17T13:32:26.344Z,49.30
2023-03-17T13:35:16.675Z,49.60
2023-03-17T13:38:12.893Z,49.80
2023-03-17T13:41:06.755Z,49.80
2023-03-17T13:43:59.587Z,50.10
2023-03-17T13:46:41.627Z,49.80
2023-03-17T13:49:21.223Z,49.60
2023-03-17T13:51:59.962Z,49.20
2023-03-17T13:54:28.040Z,49.50
2023-03-17T13:56:56.401Z,49.60
2023-03-17T13:59:56.024Z,49.80
2023-03-17T14:02:25.542Z,49.90
2023-03-17T14:04:56.224Z,50.00
2023-03-17T14:07:27.111Z,50.20
2023-03-17T14:10:02.067Z,49.90
2023-03-17T14:12:35.338Z,50.00
2023-03-17T14:15:08.573Z,50.10
2023-03-17T14:17:46.496Z,50.20
2023-03-17T14:20:16.113Z,50.40
2023-03-17T14:22:46.248Z,50.30
2023-03-17T14:25:19.019Z,50.10
2023-03-17T14:27:49.733Z,49.90
2023-03-17T14:30:22.142Z,50.10
2023-03-17T14:32:56.429Z,50.10
2023-03-17T14:35:23.015Z,50.00
2023-03-17T14:37:49.658Z,50.00
2023-03-17T14:40:25.945Z,50.10
2023-03-17T14:42:52.639Z,50.10
2023-03-17T14:45:47.609Z,50.40
2023-03-17T14:48:16.450Z,50.40
2023-03-17T14:51:05.173Z,50.50
2023-03-17T14:53:42.997Z,50.70
2023-03-17T14:56:10.465Z,50.70
2023-03-17T14:58:44.052Z,50.30
2023-03-17T15:01:22.331Z,50.10
2023-03-17T15:03:56.272Z,49.90
2023-03-17T15:06:30.670Z,50.20
2023-03-17T15:09:00.262Z,50.20
2023-03-17T15:11:35.877Z,50.40
2023-03-17T15:14:15.254Z,50.80
2023-03-17T15:16:49.588Z,51.00
2023-03-17T15:19:21.337Z,50.70
2023-03-17T15:21:48.501Z,50.50
2023-03-17T15:24:39.283Z,50.20
2023-03-17T15:27:17.344Z,50.40
2023-03-17T15:29:45.582Z,50.60
2023-03-17T15:32:15.829Z,51.10
2023-03-17T15:34:42.647Z,50.20
2023-03-17T15:37:18.279Z,50.50
2023-03-17T15:39:45.610Z,50.60
2023-03-17T15:42:12.271Z,50.70
2023-03-17T15:44:38.861Z,50.80
2023-03-17T15:47:05.633Z,50.70
2023-03-17T15:49:32.414Z,50.70
2023-03-17T15:51:59.085Z,51.00
2023-03-17T15:54:25.754Z,51.10
2023-03-17T15:56:52.427Z,51.00
2023-03-17T15:59:18.984Z,50.80
2023-03-17T16:01:45.821Z,51.10
2023-03-17T16:04:12.759Z,51.30
2023-03-17T16:06:39.625Z,51.50
2023-03-17T16:09:12.688Z,51.80
2023-03-17T16:11:40.476Z,51.70
2023-03-17T16:14:07.277Z,51.50
2023-03-17T16:16:43.342Z,51.60
2023-03-17T16:19:18.343Z,51.80
2023-03-17T16:21:45.022Z,51.80
2023-03-17T16:24:21.595Z,52.10
2023-03-17T16:26:49.233Z,52.60
2023-03-17T16:29:17.095Z,52.60
2023-03-17T16:31:46.456Z,52.70
2023-03-17T16:34:19.201Z,53.10
2023-03-17T16:36:46.225Z,53.90
2023-03-17T16:39:23.333Z,53.20
2023-03-17T16:41:50.560Z,53.50
2023-03-17T16:44:20.245Z,53.80
2023-03-17T16:46:47.666Z,54.30
2023-03-17T16:49:19.569Z,55.10
2023-03-17T16:51:46.713Z,55.60
2023-03-17T16:54:13.734Z,55.90
2023-03-17T16:56:41.811Z,56.20
2023-03-17T16:59:21.902Z,56.80
2023-03-17T17:01:48.607Z,57.10
2023-03-17T17:04:15.376Z,57.10
2023-03-17T17:06:41.982Z,57.20
2023-03-17T17:09:08.648Z,57.40
2023-03-17T17:11:35.285Z,57.60
2023-03-17T17:14:01.945Z,57.80
2023-03-17T17:16:34.621Z,58.20
2023-03-17T17:19:03.249Z,59.40
2023-03-17T17:21:31.046Z,58.50
2023-03-17T17:23:58.707Z,58.60
2023-03-17T17:26:25.458Z,58.80
2023-03-17T17:28:52.410Z,59.10
2023-03-17T17:31:19.188Z,59.30
2023-03-17T17:33:45.859Z,59.40
2023-03-17T17:36:15.581Z,59.50
2023-03-17T17:38:42.547Z,59.60
2023-03-17T17:41:11.444Z,59.40
2023-03-17T17:43:38.176Z,59.30
2023-03-17T17:46:16.726Z,59.30
2023-03-17T17:48:43.740Z,59.30
2023-03-17T17:51:10.487Z,59.40
2023-03-17T17:53:37.162Z,59.70
2023-03-17T17:56:04.701Z,59.80
2023-03-17T17:58:31.567Z,59.80
2023-03-17T18:00:58.531Z,59.90
2023-03-17T18:03:26.426Z,60.00
2023-03-17T18:05:54.781Z,60.10
2023-03-17T18:08:22.619Z,60.00
2023-03-17T18:10:51.831Z,60.00
2023-03-17T18:13:18.834Z,60.20
2023-03-17T18:15:45.515Z,60.20
2023-03-17T18:18:12.164Z,60.30
2023-03-17T18:20:38.837Z,60.50
2023-03-17T18:23:05.478Z,60.50
2023-03-17T18:25:32.161Z,60.50
2023-03-17T18:28:00.793Z,60.40
2023-03-17T18:30:30.787Z,60.50
2023-03-17T18:33:04.376Z,60.40
2023-03-17T18:35:31.493Z,60.30
2023-03-17T18:37:58.504Z,60.50
2023-03-17T18:40:26.168Z,60.60
2023-03-17T18:42:53.700Z,60.70
2023-03-17T18:45:20.672Z,60.90
2023-03-17T18:47:47.261Z,61.00
2023-03-17T18:50:15.471Z,61.10
2023-03-17T18:52:43.776Z,61.20
2023-03-17T18:55:12.765Z,61.20
2023-03-17T18:57:42.553Z,61.20
2023-03-17T19:00:12.173Z,61.30
2023-03-17T19:02:38.853Z,61.50
2023-03-17T19:05:07.391Z,61.60
2023-03-17T19:07:34.431Z,62.40
2023-03-17T19:10:01.034Z,61.70
2023-03-17T19:12:27.796Z,61.70
2023-03-17T19:14:54.445Z,61.80
2023-03-17T19:17:21.056Z,62.00
2023-03-17T19:19:50.221Z,62.00
2023-03-17T19:22:16.855Z,62.10
2023-03-17T19:24:43.966Z,62.10
2023-03-17T19:27:10.907Z,62.20
2023-03-17T19:29:37.515Z,62.30
2023-03-17T19:32:04.176Z,62.20
2023-03-17T19:34:30.832Z,62.30
2023-03-17T19:36:57.501Z,62.30
2023-03-17T19:39:24.213Z,62.40
2023-03-17T19:41:54.866Z,62.30
2023-03-17T19:44:24.957Z,62.30
2023-03-17T19:46:51.841Z,62.30
2023-03-17T19:49:20.968Z,62.30
2023-03-17T19:51:48.816Z,62.30
2023-03-17T19:54:15.564Z,62.20
2023-03-17T19:56:42.461Z,62.10
2023-03-17T19:59:09.245Z,62.00
2023-03-17T20:01:37.742Z,61.90
2023-03-17T20:04:06.624Z,61.80
2023-03-17T20:06:34.494Z,61.80
2023-03-17T20:09:03.898Z,61.80
2023-03-17T20:11:34.194Z,61.80
2023-03-17T20:14:05.334Z,61.80
2023-03-17T20:16:33.720Z,62.00
2023-03-17T20:19:04.115Z,62.00
2023-03-17T20:21:31.289Z,62.00
2023-03-17T20:23:57.962Z,62.00
2023-03-17T20:26:24.580Z,61.90
2023-03-17T20:28:51.549Z,61.80
2023-03-17T20:31:18.666Z,61.70
2023-03-17T20:33:45.309Z,61.60
2023-03-17T20:36:12.861Z,61.60
2023-03-17T20:38:40.542Z,61.50
2023-03-17T20:41:12.716Z,61.50
2023-03-17T20:43:40.340Z,61.50
2023-03-17T20:46:08.959Z,61.50
2023-03-17T20:48:37.027Z,61.50
2023-03-17T20:51:06.161Z,61.50
2023-03-17T20:53:34.265Z,61.50
2023-03-17T20:56:00.870Z,61.50
2023-03-17T20:58:27.664Z,61.50
2023-03-17T21:00:55.087Z,61.40
2023-03-17T21:03:21.741Z,61.40
2023-03-17T21:05:48.355Z,61.40
2023-03-17T21:08:15.447Z,61.50
2023-03-17T21:10:42.102Z,61.50
2023-03-17T21:13:08.894Z,61.50
2023-03-17T21:15:36.079Z,61.50
2023-03-17T21:18:03.007Z,61.60
2023-03-17T21:20:29.865Z,61.60
2023-03-17T21:22:56.622Z,61.70
2023-03-17T21:25:23.372Z,61.80
2023-03-17T21:27:50.821Z,61.90
2023-03-17T21:30:17.643Z,61.90
2023-03-17T21:32:44.358Z,62.00
2023-03-17T21:35:11.013Z,62.00
2023-03-17T21:37:37.603Z,62.20
2023-03-17T21:40:08.112Z,62.30
2023-03-17T21:42:34.896Z,62.40
2023-03-17T21:45:01.591Z,62.50
2023-03-17T21:47:29.891Z,62.50
2023-03-17T21:49:57.893Z,62.60
2023-03-17T21:52:25.221Z,62.80
2023-03-17T21:54:51.944Z,62.90
2023-03-17T21:57:18.687Z,63.00
2023-03-17T21:59:45.583Z,63.10
2023-03-17T22:02:12.674Z,63.10
2023-03-17T22:04:39.476Z,63.10
2023-03-17T22:07:06.119Z,63.10
2023-03-17T22:09:32.725Z,63.10
2023-03-17T22:11:59.815Z,63.10
2023-03-17T22:14:26.902Z,63.10
2023-03-17T22:16:54.126Z,63.30
2023-03-17T22:19:21.536Z,63.30
2023-03-17T22:21:48.453Z,63.40
2023-03-17T22:24:15.870Z,63.50
2023-03-17T22:26:42.540Z,63.60
2023-03-17T22:29:09.192Z,63.70
2023-03-17T22:31:36.171Z,63.80
2023-03-17T22:34:03.361Z,63.90
2023-03-17T22:36:30.748Z,64.00
2023-03-17T22:38:58.224Z,64.10
2023-03-17T22:41:27.283Z,64.20
2023-03-17T22:43:54.273Z,64.30
2023-03-17T22:46:21.638Z,64.30
2023-03-17T22:48:48.917Z,64.50
2023-03-17T22:51:18.640Z,64.60
2023-03-17T22:53:45.742Z,64.70
2023-03-17T22:56:14.135Z,64.80
2023-03-17T22:58:41.461Z,64.90
2023-03-17T23:01:09.097Z,64.90
2023-03-17T23:03:36.333Z,65.00
2023-03-17T23:06:04.825Z,65.10
2023-03-17T23:08:34.975Z,65.20
2023-03-17T23:11:08.092Z,65.20
2023-03-17T23:13:35.478Z,65.30
2023-03-17T23:16:02.878Z,65.30
2023-03-17T23:18:29.532Z,65.40
2023-03-17T23:20:56.206Z,65.40
2023-03-17T23:23:23.317Z,65.40
2023-03-17T23:25:50.038Z,65.50
2023-03-17T23:28:16.712Z,65.60
2023-03-17T23:30:43.981Z,65.70
2023-03-17T23:33:10.721Z,65.80
2023-03-17T23:35:37.957Z,65.90
2023-03-17T23:38:05.138Z,66.00
2023-03-17T23:40:32.357Z,66.10
2023-03-17T23:42:59.163Z,66.20
2023-03-17T23:45:26.278Z,66.30
2023-03-17T23:47:54.335Z,66.40
2023-03-17T23:50:21.336Z,66.50
2023-03-17T23:52:49.270Z,66.50
2023-03-17T23:55:18.669Z,66.60
2023-03-17T23:57:45.634Z,66.80
